sensor_id;sensor_type;location;lat;lon;timestamp;P1;durP1;ratioP1;P2;durP2;ratioP2
2548;SDS011;1284;53.520;10.248;2023-12-14T00:02:02;2.03;;;1.00;;
2548;SDS011;1284;53.520;10.248;2023-12-14T00:04:27;0.82;;;0.80;;
2548;SDS011;1284;53.520;10.248;2023-12-14T00:06:52;0.65;;;0.60;;
2548;SDS011;1284;53.520;10.248;2023-12-14T00:09:18;1.20;;;0.85;;
2548;SDS011;1284;53.520;10.248;2023-12-14T00:11:48;1.00;;;0.93;;
2548;SDS011;1284;53.520;10.248;2023-12-14T00:14:17;1.65;;;1.10;;
2548;SDS011;1284;53.520;10.248;2023-12-14T00:16:42;5.75;;;1.25;;
2548;SDS011;1284;53.520;10.248;2023-12-14T00:19:10;0.70;;;0.70;;
2548;SDS011;1284;53.520;10.248;2023-12-14T00:21:36;0.93;;;0.60;;
2548;SDS011;1284;53.520;10.248;2023-12-14T00:24:01;0.95;;;0.80;;
2548;SDS011;1284;53.520;10.248;2023-12-14T00:26:27;2.55;;;1.15;;
2548;SDS011;1284;53.520;10.248;2023-12-14T00:28:52;1.00;;;0.90;;
2548;SDS011;1284;53.520;10.248;2023-12-14T00:31:18;3.45;;;0.70;;
2548;SDS011;1284;53.520;10.248;2023-12-14T00:33:43;0.85;;;0.80;;
2548;SDS011;1284;53.520;10.248;2023-12-14T00:36:09;0.70;;;0.70;;
2548;SDS011;1284;53.520;10.248;2023-12-14T00:38:42;3.70;;;0.73;;
2548;SDS011;1284;53.520;10.248;2023-12-14T00:41:08;1.95;;;0.60;;
2548;SDS011;1284;53.520;10.248;2023-12-14T00:43:35;1.27;;;0.68;;
2548;SDS011;1284;53.520;10.248;2023-12-14T00:46:01;1.23;;;0.75;;
2548;SDS011;1284;53.520;10.248;2023-12-14T00:48:28;0.73;;;0.73;;
2548;SDS011;1284;53.520;10.248;2023-12-14T00:50:53;1.48;;;0.82;;
2548;SDS011;1284;53.520;10.248;2023-12-14T00:53:21;0.98;;;0.80;;
2548;SDS011;1284;53.520;10.248;2023-12-14T00:55:47;0.88;;;0.73;;
2548;SDS011;1284;53.520;10.248;2023-12-14T00:58:15;0.82;;;0.57;;
2548;SDS011;1284;53.520;10.248;2023-12-14T01:00:41;0.50;;;0.50;;
2548;SDS011;1284;53.520;10.248;2023-12-14T01:03:06;1.63;;;1.00;;
2548;SDS011;1284;53.520;10.248;2023-12-14T01:05:32;1.33;;;1.13;;
2548;SDS011;1284;53.520;10.248;2023-12-14T01:07:57;0.40;;;0.40;;
2548;SDS011;1284;53.520;10.248;2023-12-14T01:10:29;0.55;;;0.50;;
2548;SDS011;1284;53.520;10.248;2023-12-14T01:12:54;0.63;;;0.60;;
2548;SDS011;1284;53.520;10.248;2023-12-14T01:15:20;2.25;;;0.80;;
2548;SDS011;1284;53.520;10.248;2023-12-14T01:17:45;1.80;;;0.52;;
2548;SDS011;1284;53.520;10.248;2023-12-14T01:20:11;0.60;;;0.47;;
2548;SDS011;1284;53.520;10.248;2023-12-14T01:22:36;0.70;;;0.60;;
2548;SDS011;1284;53.520;10.248;2023-12-14T01:25:02;0.40;;;0.40;;
2548;SDS011;1284;53.520;10.248;2023-12-14T01:27:27;4.45;;;0.60;;
2548;SDS011;1284;53.520;10.248;2023-12-14T01:29:53;0.40;;;0.40;;
2548;SDS011;1284;53.520;10.248;2023-12-14T01:32:18;0.70;;;0.60;;
2548;SDS011;1284;53.520;10.248;2023-12-14T01:34:44;0.40;;;0.40;;
2548;SDS011;1284;53.520;10.248;2023-12-14T01:37:11;0.60;;;0.50;;
2548;SDS011;1284;53.520;10.248;2023-12-14T01:39:36;4.70;;;0.40;;
2548;SDS011;1284;53.520;10.248;2023-12-14T01:42:02;0.40;;;0.40;;
2548;SDS011;1284;53.520;10.248;2023-12-14T01:44:27;0.40;;;0.40;;
2548;SDS011;1284;53.520;10.248;2023-12-14T01:46:53;0.70;;;0.57;;
2548;SDS011;1284;53.520;10.248;2023-12-14T01:49:18;0.45;;;0.45;;
2548;SDS011;1284;53.520;10.248;2023-12-14T01:51:43;2.25;;;0.60;;
2548;SDS011;1284;53.520;10.248;2023-12-14T01:54:09;0.40;;;0.40;;
2548;SDS011;1284;53.520;10.248;2023-12-14T01:56:34;0.60;;;0.60;;
2548;SDS011;1284;53.520;10.248;2023-12-14T01:59:00;1.45;;;0.52;;
2548;SDS011;1284;53.520;10.248;2023-12-14T02:04:02;0.28;;;0.28;;
2548;SDS011;1284;53.520;10.248;2023-12-14T02:06:29;0.63;;;0.47;;
2548;SDS011;1284;53.520;10.248;2023-12-14T02:08:54;0.50;;;0.50;;
2548;SDS011;1284;53.520;10.248;2023-12-14T02:11:19;1.90;;;0.65;;
2548;SDS011;1284;53.520;10.248;2023-12-14T02:13:45;0.50;;;0.50;;
2548;SDS011;1284;53.520;10.248;2023-12-14T02:16:10;0.57;;;0.55;;
2548;SDS011;1284;53.520;10.248;2023-12-14T02:18:36;0.40;;;0.40;;
2548;SDS011;1284;53.520;10.248;2023-12-14T02:21:02;0.50;;;0.50;;
2548;SDS011;1284;53.520;10.248;2023-12-14T02:23:28;0.98;;;0.40;;
2548;SDS011;1284;53.520;10.248;2023-12-14T02:25:53;0.20;;;0.20;;
2548;SDS011;1284;53.520;10.248;2023-12-14T02:28:19;0.70;;;0.70;;
2548;SDS011;1284;53.520;10.248;2023-12-14T02:30:44;1.65;;;1.27;;
2548;SDS011;1284;53.520;10.248;2023-12-14T02:33:09;1.75;;;0.65;;
2548;SDS011;1284;53.520;10.248;2023-12-14T02:35:37;0.93;;;0.68;;
2548;SDS011;1284;53.520;10.248;2023-12-14T02:38:03;0.73;;;0.60;;
2548;SDS011;1284;53.520;10.248;2023-12-14T02:40:28;0.70;;;0.60;;
2548;SDS011;1284;53.520;10.248;2023-12-14T02:42:54;1.15;;;0.65;;
2548;SDS011;1284;53.520;10.248;2023-12-14T02:45:19;1.17;;;0.85;;
2548;SDS011;1284;53.520;10.248;2023-12-14T02:47:50;0.80;;;0.68;;
2548;SDS011;1284;53.520;10.248;2023-12-14T02:50:17;0.40;;;0.40;;
2548;SDS011;1284;53.520;10.248;2023-12-14T02:52:42;0.68;;;0.68;;
2548;SDS011;1284;53.520;10.248;2023-12-14T02:55:08;0.80;;;0.38;;
2548;SDS011;1284;53.520;10.248;2023-12-14T02:57:33;0.60;;;0.60;;
2548;SDS011;1284;53.520;10.248;2023-12-14T02:59:59;0.30;;;0.30;;
2548;SDS011;1284;53.520;10.248;2023-12-14T03:02:24;0.90;;;0.70;;
2548;SDS011;1284;53.520;10.248;2023-12-14T03:04:50;0.90;;;0.60;;
2548;SDS011;1284;53.520;10.248;2023-12-14T03:07:15;0.80;;;0.57;;
2548;SDS011;1284;53.520;10.248;2023-12-14T03:09:40;0.95;;;0.63;;
2548;SDS011;1284;53.520;10.248;2023-12-14T03:12:08;0.47;;;0.47;;
2548;SDS011;1284;53.520;10.248;2023-12-14T03:14:33;0.68;;;0.68;;
2548;SDS011;1284;53.520;10.248;2023-12-14T03:16:59;0.50;;;0.45;;
2548;SDS011;1284;53.520;10.248;2023-12-14T03:19:25;1.02;;;0.93;;
2548;SDS011;1284;53.520;10.248;2023-12-14T03:21:50;0.60;;;0.60;;
2548;SDS011;1284;53.520;10.248;2023-12-14T03:24:15;1.05;;;0.47;;
2548;SDS011;1284;53.520;10.248;2023-12-14T03:26:41;1.10;;;1.00;;
2548;SDS011;1284;53.520;10.248;2023-12-14T03:29:07;2.05;;;0.88;;
2548;SDS011;1284;53.520;10.248;2023-12-14T03:31:33;0.55;;;0.55;;
2548;SDS011;1284;53.520;10.248;2023-12-14T03:33:58;0.50;;;0.50;;
2548;SDS011;1284;53.520;10.248;2023-12-14T03:36:24;0.63;;;0.40;;
2548;SDS011;1284;53.520;10.248;2023-12-14T03:38:51;0.30;;;0.30;;
2548;SDS011;1284;53.520;10.248;2023-12-14T03:41:20;1.00;;;0.75;;
2548;SDS011;1284;53.520;10.248;2023-12-14T03:43:45;0.70;;;0.45;;
2548;SDS011;1284;53.520;10.248;2023-12-14T03:46:11;0.55;;;0.55;;
2548;SDS011;1284;53.520;10.248;2023-12-14T03:48:37;1.08;;;0.80;;
2548;SDS011;1284;53.520;10.248;2023-12-14T03:51:03;1.85;;;0.90;;
2548;SDS011;1284;53.520;10.248;2023-12-14T03:53:29;1.25;;;0.65;;
2548;SDS011;1284;53.520;10.248;2023-12-14T03:55:54;1.08;;;0.80;;
2548;SDS011;1284;53.520;10.248;2023-12-14T03:58:20;0.47;;;0.47;;
2548;SDS011;1284;53.520;10.248;2023-12-14T04:00:45;1.30;;;0.60;;
2548;SDS011;1284;53.520;10.248;2023-12-14T04:03:11;0.60;;;0.60;;
2548;SDS011;1284;53.520;10.248;2023-12-14T04:05:36;0.75;;;0.47;;
2548;SDS011;1284;53.520;10.248;2023-12-14T04:08:03;0.70;;;0.70;;
2548;SDS011;1284;53.520;10.248;2023-12-14T04:10:33;0.60;;;0.57;;
2548;SDS011;1284;53.520;10.248;2023-12-14T04:12:58;0.82;;;0.75;;
2548;SDS011;1284;53.520;10.248;2023-12-14T04:15:23;1.02;;;0.95;;
2548;SDS011;1284;53.520;10.248;2023-12-14T04:17:49;0.60;;;0.50;;
2548;SDS011;1284;53.520;10.248;2023-12-14T04:20:14;0.73;;;0.55;;
2548;SDS011;1284;53.520;10.248;2023-12-14T04:22:41;0.65;;;0.65;;
2548;SDS011;1284;53.520;10.248;2023-12-14T04:25:08;1.27;;;0.90;;
2548;SDS011;1284;53.520;10.248;2023-12-14T04:27:33;1.38;;;0.85;;
2548;SDS011;1284;53.520;10.248;2023-12-14T04:29:59;0.75;;;0.75;;
2548;SDS011;1284;53.520;10.248;2023-12-14T04:32:24;0.80;;;0.55;;
2548;SDS011;1284;53.520;10.248;2023-12-14T04:34:50;0.50;;;0.50;;
2548;SDS011;1284;53.520;10.248;2023-12-14T04:37:15;1.13;;;0.82;;
2548;SDS011;1284;53.520;10.248;2023-12-14T04:39:41;1.10;;;0.90;;
2548;SDS011;1284;53.520;10.248;2023-12-14T04:42:09;0.57;;;0.52;;
2548;SDS011;1284;53.520;10.248;2023-12-14T04:44:34;0.77;;;0.75;;
2548;SDS011;1284;53.520;10.248;2023-12-14T04:47:00;4.20;;;0.90;;
2548;SDS011;1284;53.520;10.248;2023-12-14T04:49:25;1.42;;;0.77;;
2548;SDS011;1284;53.520;10.248;2023-12-14T04:51:51;0.60;;;0.60;;
2548;SDS011;1284;53.520;10.248;2023-12-14T04:54:16;0.95;;;0.90;;
2548;SDS011;1284;53.520;10.248;2023-12-14T04:56:44;1.33;;;1.00;;
2548;SDS011;1284;53.520;10.248;2023-12-14T04:59:11;1.00;;;0.70;;
2548;SDS011;1284;53.520;10.248;2023-12-14T05:01:36;0.68;;;0.65;;
2548;SDS011;1284;53.520;10.248;2023-12-14T05:04:02;1.70;;;0.95;;
2548;SDS011;1284;53.520;10.248;2023-12-14T05:06:27;0.93;;;0.50;;
2548;SDS011;1284;53.520;10.248;2023-12-14T05:08:53;1.40;;;0.73;;
2548;SDS011;1284;53.520;10.248;2023-12-14T05:11:19;0.82;;;0.73;;
2548;SDS011;1284;53.520;10.248;2023-12-14T05:13:44;1.88;;;1.02;;
2548;SDS011;1284;53.520;10.248;2023-12-14T05:16:14;4.47;;;0.70;;
2548;SDS011;1284;53.520;10.248;2023-12-14T05:18:39;1.45;;;0.85;;
2548;SDS011;1284;53.520;10.248;2023-12-14T05:21:05;2.75;;;1.02;;
2548;SDS011;1284;53.520;10.248;2023-12-14T05:23:31;1.77;;;1.05;;
2548;SDS011;1284;53.520;10.248;2023-12-14T05:25:56;0.63;;;0.63;;
2548;SDS011;1284;53.520;10.248;2023-12-14T05:28:21;1.70;;;1.20;;
2548;SDS011;1284;53.520;10.248;2023-12-14T05:30:47;3.65;;;1.40;;
2548;SDS011;1284;53.520;10.248;2023-12-14T05:33:13;6.43;;;1.10;;
2548;SDS011;1284;53.520;10.248;2023-12-14T05:35:39;1.13;;;1.00;;
2548;SDS011;1284;53.520;10.248;2023-12-14T05:38:04;1.48;;;1.23;;
2548;SDS011;1284;53.520;10.248;2023-12-14T05:40:29;2.53;;;1.45;;
2548;SDS011;1284;53.520;10.248;2023-12-14T05:42:56;1.67;;;0.90;;
2548;SDS011;1284;53.520;10.248;2023-12-14T05:45:22;1.58;;;1.00;;
2548;SDS011;1284;53.520;10.248;2023-12-14T05:47:47;4.78;;;0.90;;
2548;SDS011;1284;53.520;10.248;2023-12-14T05:50:13;1.45;;;1.05;;
2548;SDS011;1284;53.520;10.248;2023-12-14T05:52:38;1.52;;;0.75;;
2548;SDS011;1284;53.520;10.248;2023-12-14T05:55:07;1.00;;;0.85;;
2548;SDS011;1284;53.520;10.248;2023-12-14T05:57:35;0.75;;;0.70;;
2548;SDS011;1284;53.520;10.248;2023-12-14T06:00:00;1.98;;;1.35;;
2548;SDS011;1284;53.520;10.248;2023-12-14T06:02:26;2.00;;;1.20;;
2548;SDS011;1284;53.520;10.248;2023-12-14T06:04:51;3.03;;;1.40;;
2548;SDS011;1284;53.520;10.248;2023-12-14T06:07:17;0.82;;;0.73;;
2548;SDS011;1284;53.520;10.248;2023-12-14T06:09:42;1.10;;;0.80;;
2548;SDS011;1284;53.520;10.248;2023-12-14T06:12:09;1.85;;;1.15;;
2548;SDS011;1284;53.520;10.248;2023-12-14T06:14:38;1.63;;;1.10;;
2548;SDS011;1284;53.520;10.248;2023-12-14T06:17:03;1.35;;;1.08;;
2548;SDS011;1284;53.520;10.248;2023-12-14T06:19:29;2.65;;;1.20;;
2548;SDS011;1284;53.520;10.248;2023-12-14T06:21:54;2.15;;;1.10;;
2548;SDS011;1284;53.520;10.248;2023-12-14T06:24:20;1.58;;;0.80;;
2548;SDS011;1284;53.520;10.248;2023-12-14T06:26:47;2.25;;;1.40;;
2548;SDS011;1284;53.520;10.248;2023-12-14T06:29:13;1.52;;;1.38;;
2548;SDS011;1284;53.520;10.248;2023-12-14T06:31:38;1.70;;;0.95;;
2548;SDS011;1284;53.520;10.248;2023-12-14T06:34:04;2.05;;;1.45;;
2548;SDS011;1284;53.520;10.248;2023-12-14T06:36:30;3.03;;;1.35;;
2548;SDS011;1284;53.520;10.248;2023-12-14T06:39:00;1.10;;;1.00;;
2548;SDS011;1284;53.520;10.248;2023-12-14T06:41:26;2.53;;;1.02;;
2548;SDS011;1284;53.520;10.248;2023-12-14T06:43:53;2.65;;;1.38;;
2548;SDS011;1284;53.520;10.248;2023-12-14T06:46:19;2.50;;;1.60;;
2548;SDS011;1284;53.520;10.248;2023-12-14T06:48:45;2.63;;;1.20;;
2548;SDS011;1284;53.520;10.248;2023-12-14T06:51:11;1.13;;;0.93;;
2548;SDS011;1284;53.520;10.248;2023-12-14T06:53:39;1.45;;;1.33;;
2548;SDS011;1284;53.520;10.248;2023-12-14T06:56:06;0.98;;;0.88;;
2548;SDS011;1284;53.520;10.248;2023-12-14T06:58:36;1.15;;;1.05;;
2548;SDS011;1284;53.520;10.248;2023-12-14T07:01:05;1.85;;;1.48;;
2548;SDS011;1284;53.520;10.248;2023-12-14T07:03:30;3.80;;;1.20;;
2548;SDS011;1284;53.520;10.248;2023-12-14T07:05:56;2.13;;;1.27;;
2548;SDS011;1284;53.520;10.248;2023-12-14T07:08:23;2.17;;;1.45;;
2548;SDS011;1284;53.520;10.248;2023-12-14T07:10:48;2.35;;;1.10;;
2548;SDS011;1284;53.520;10.248;2023-12-14T07:13:14;2.17;;;0.98;;
2548;SDS011;1284;53.520;10.248;2023-12-14T07:15:39;0.90;;;0.90;;
2548;SDS011;1284;53.520;10.248;2023-12-14T07:18:05;1.23;;;0.85;;
2548;SDS011;1284;53.520;10.248;2023-12-14T07:20:30;1.50;;;1.20;;
2548;SDS011;1284;53.520;10.248;2023-12-14T07:22:59;1.35;;;1.08;;
2548;SDS011;1284;53.520;10.248;2023-12-14T07:25:24;1.30;;;0.88;;
2548;SDS011;1284;53.520;10.248;2023-12-14T07:27:50;1.23;;;0.77;;
2548;SDS011;1284;53.520;10.248;2023-12-14T07:30:16;2.80;;;1.33;;
2548;SDS011;1284;53.520;10.248;2023-12-14T07:32:44;5.20;;;1.48;;
2548;SDS011;1284;53.520;10.248;2023-12-14T07:35:10;1.00;;;0.95;;
2548;SDS011;1284;53.520;10.248;2023-12-14T07:37:39;1.10;;;0.82;;
2548;SDS011;1284;53.520;10.248;2023-12-14T07:40:04;2.67;;;1.45;;
2548;SDS011;1284;53.520;10.248;2023-12-14T07:42:30;3.38;;;1.27;;
2548;SDS011;1284;53.520;10.248;2023-12-14T07:44:56;2.33;;;1.25;;
2548;SDS011;1284;53.520;10.248;2023-12-14T07:47:25;0.95;;;0.90;;
2548;SDS011;1284;53.520;10.248;2023-12-14T07:49:50;1.65;;;1.10;;
2548;SDS011;1284;53.520;10.248;2023-12-14T07:52:15;6.38;;;1.48;;
2548;SDS011;1284;53.520;10.248;2023-12-14T07:54:43;1.08;;;0.80;;
2548;SDS011;1284;53.520;10.248;2023-12-14T07:57:09;1.67;;;1.15;;
2548;SDS011;1284;53.520;10.248;2023-12-14T07:59:34;1.20;;;1.10;;
2548;SDS011;1284;53.520;10.248;2023-12-14T08:02:00;2.40;;;0.88;;
2548;SDS011;1284;53.520;10.248;2023-12-14T08:04:25;4.65;;;1.83;;
2548;SDS011;1284;53.520;10.248;2023-12-14T08:06:51;1.92;;;1.52;;
2548;SDS011;1284;53.520;10.248;2023-12-14T08:09:16;1.90;;;1.00;;
2548;SDS011;1284;53.520;10.248;2023-12-14T08:11:42;2.28;;;1.02;;
2548;SDS011;1284;53.520;10.248;2023-12-14T08:14:07;2.88;;;1.15;;
2548;SDS011;1284;53.520;10.248;2023-12-14T08:16:32;2.85;;;1.38;;
2548;SDS011;1284;53.520;10.248;2023-12-14T08:18:58;1.30;;;0.88;;
2548;SDS011;1284;53.520;10.248;2023-12-14T08:21:23;1.30;;;1.20;;
2548;SDS011;1284;53.520;10.248;2023-12-14T08:23:49;1.23;;;1.10;;
2548;SDS011;1284;53.520;10.248;2023-12-14T08:26:14;2.90;;;1.13;;
2548;SDS011;1284;53.520;10.248;2023-12-14T08:28:40;1.88;;;1.17;;
2548;SDS011;1284;53.520;10.248;2023-12-14T08:31:05;1.83;;;1.27;;
2548;SDS011;1284;53.520;10.248;2023-12-14T08:33:31;1.75;;;1.30;;
2548;SDS011;1284;53.520;10.248;2023-12-14T08:35:57;1.08;;;0.88;;
2548;SDS011;1284;53.520;10.248;2023-12-14T08:38:23;1.42;;;1.20;;
2548;SDS011;1284;53.520;10.248;2023-12-14T08:40:49;1.52;;;1.15;;
2548;SDS011;1284;53.520;10.248;2023-12-14T08:43:15;6.03;;;1.80;;
2548;SDS011;1284;53.520;10.248;2023-12-14T08:45:40;2.95;;;1.00;;
2548;SDS011;1284;53.520;10.248;2023-12-14T08:48:06;1.55;;;1.15;;
2548;SDS011;1284;53.520;10.248;2023-12-14T08:50:32;1.23;;;1.13;;
2548;SDS011;1284;53.520;10.248;2023-12-14T08:52:58;3.33;;;1.15;;
2548;SDS011;1284;53.520;10.248;2023-12-14T08:55:24;1.08;;;0.93;;
2548;SDS011;1284;53.520;10.248;2023-12-14T08:57:50;5.30;;;1.20;;
2548;SDS011;1284;53.520;10.248;2023-12-14T09:00:16;3.47;;;1.45;;
2548;SDS011;1284;53.520;10.248;2023-12-14T09:02:43;2.67;;;1.35;;
2548;SDS011;1284;53.520;10.248;2023-12-14T09:05:11;1.83;;;1.05;;
2548;SDS011;1284;53.520;10.248;2023-12-14T09:07:38;5.78;;;1.77;;
2548;SDS011;1284;53.520;10.248;2023-12-14T09:10:04;2.50;;;1.27;;
2548;SDS011;1284;53.520;10.248;2023-12-14T09:12:30;3.00;;;1.90;;
2548;SDS011;1284;53.520;10.248;2023-12-14T09:14:55;3.53;;;1.70;;
2548;SDS011;1284;53.520;10.248;2023-12-14T09:17:21;2.72;;;1.63;;
2548;SDS011;1284;53.520;10.248;2023-12-14T09:19:46;2.13;;;1.10;;
2548;SDS011;1284;53.520;10.248;2023-12-14T09:22:12;1.63;;;1.27;;
2548;SDS011;1284;53.520;10.248;2023-12-14T09:24:37;5.40;;;1.45;;
2548;SDS011;1284;53.520;10.248;2023-12-14T09:27:03;1.30;;;1.23;;
2548;SDS011;1284;53.520;10.248;2023-12-14T09:29:28;1.30;;;1.20;;
2548;SDS011;1284;53.520;10.248;2023-12-14T09:31:54;2.22;;;1.30;;
2548;SDS011;1284;53.520;10.248;2023-12-14T09:34:19;2.17;;;1.77;;
2548;SDS011;1284;53.520;10.248;2023-12-14T09:36:47;3.42;;;1.40;;
2548;SDS011;1284;53.520;10.248;2023-12-14T09:39:13;2.22;;;1.13;;
2548;SDS011;1284;53.520;10.248;2023-12-14T09:41:40;1.77;;;1.40;;
2548;SDS011;1284;53.520;10.248;2023-12-14T09:44:05;1.73;;;1.20;;
2548;SDS011;1284;53.520;10.248;2023-12-14T09:46:35;3.25;;;1.70;;
2548;SDS011;1284;53.520;10.248;2023-12-14T09:49:02;2.05;;;1.17;;
2548;SDS011;1284;53.520;10.248;2023-12-14T09:51:29;1.40;;;0.90;;
2548;SDS011;1284;53.520;10.248;2023-12-14T09:53:55;2.08;;;1.13;;
2548;SDS011;1284;53.520;10.248;2023-12-14T09:56:26;1.52;;;1.30;;
2548;SDS011;1284;53.520;10.248;2023-12-14T09:58:52;2.13;;;1.20;;
2548;SDS011;1284;53.520;10.248;2023-12-14T10:01:22;3.45;;;1.52;;
2548;SDS011;1284;53.520;10.248;2023-12-14T10:03:49;1.90;;;1.10;;
2548;SDS011;1284;53.520;10.248;2023-12-14T10:06:15;1.02;;;0.90;;
2548;SDS011;1284;53.520;10.248;2023-12-14T10:08:40;1.85;;;1.05;;
2548;SDS011;1284;53.520;10.248;2023-12-14T10:11:14;3.30;;;1.33;;
2548;SDS011;1284;53.520;10.248;2023-12-14T10:13:41;3.70;;;1.52;;
2548;SDS011;1284;53.520;10.248;2023-12-14T10:16:07;1.23;;;0.85;;
2548;SDS011;1284;53.520;10.248;2023-12-14T10:18:32;6.28;;;1.40;;
2548;SDS011;1284;53.520;10.248;2023-12-14T10:21:01;3.58;;;2.13;;
2548;SDS011;1284;53.520;10.248;2023-12-14T10:23:27;5.53;;;1.27;;
2548;SDS011;1284;53.520;10.248;2023-12-14T10:25:53;1.17;;;1.00;;
2548;SDS011;1284;53.520;10.248;2023-12-14T10:28:18;8.43;;;1.27;;
2548;SDS011;1284;53.520;10.248;2023-12-14T10:30:44;0.98;;;0.90;;
2548;SDS011;1284;53.520;10.248;2023-12-14T10:33:09;3.38;;;1.52;;
2548;SDS011;1284;53.520;10.248;2023-12-14T10:35:35;2.22;;;1.55;;
2548;SDS011;1284;53.520;10.248;2023-12-14T10:38:04;2.15;;;1.35;;
2548;SDS011;1284;53.520;10.248;2023-12-14T10:40:30;2.10;;;1.15;;
2548;SDS011;1284;53.520;10.248;2023-12-14T10:42:58;2.63;;;1.20;;
2548;SDS011;1284;53.520;10.248;2023-12-14T10:45:27;2.10;;;1.60;;
2548;SDS011;1284;53.520;10.248;2023-12-14T10:47:55;1.70;;;1.05;;
2548;SDS011;1284;53.520;10.248;2023-12-14T10:50:24;3.25;;;1.13;;
2548;SDS011;1284;53.520;10.248;2023-12-14T10:52:50;1.65;;;0.82;;
2548;SDS011;1284;53.520;10.248;2023-12-14T10:55:23;2.03;;;1.10;;
2548;SDS011;1284;53.520;10.248;2023-12-14T10:57:57;3.33;;;1.50;;
2548;SDS011;1284;53.520;10.248;2023-12-14T11:00:23;4.95;;;1.15;;
2548;SDS011;1284;53.520;10.248;2023-12-14T11:02:48;1.98;;;1.13;;
2548;SDS011;1284;53.520;10.248;2023-12-14T11:05:15;1.85;;;1.38;;
2548;SDS011;1284;53.520;10.248;2023-12-14T11:07:52;2.78;;;1.27;;
2548;SDS011;1284;53.520;10.248;2023-12-14T11:10:20;1.73;;;1.08;;
2548;SDS011;1284;53.520;10.248;2023-12-14T11:13:07;1.20;;;0.90;;
2548;SDS011;1284;53.520;10.248;2023-12-14T11:15:39;1.77;;;1.13;;
2548;SDS011;1284;53.520;10.248;2023-12-14T11:20:47;2.75;;;1.08;;
2548;SDS011;1284;53.520;10.248;2023-12-14T11:25:44;2.67;;;1.73;;
2548;SDS011;1284;53.520;10.248;2023-12-14T11:28:13;3.45;;;1.35;;
2548;SDS011;1284;53.520;10.248;2023-12-14T11:30:39;1.73;;;1.27;;
2548;SDS011;1284;53.520;10.248;2023-12-14T11:33:05;1.25;;;1.02;;
2548;SDS011;1284;53.520;10.248;2023-12-14T11:35:30;4.80;;;1.92;;
2548;SDS011;1284;53.520;10.248;2023-12-14T11:37:56;2.10;;;1.45;;
2548;SDS011;1284;53.520;10.248;2023-12-14T11:40:24;3.83;;;1.58;;
2548;SDS011;1284;53.520;10.248;2023-12-14T11:42:59;2.42;;;1.48;;
2548;SDS011;1284;53.520;10.248;2023-12-14T11:45:25;5.20;;;1.80;;
2548;SDS011;1284;53.520;10.248;2023-12-14T11:47:51;5.85;;;1.38;;
2548;SDS011;1284;53.520;10.248;2023-12-14T11:50:20;1.35;;;1.00;;
2548;SDS011;1284;53.520;10.248;2023-12-14T11:52:46;3.50;;;1.52;;
2548;SDS011;1284;53.520;10.248;2023-12-14T11:55:11;2.92;;;1.58;;
2548;SDS011;1284;53.520;10.248;2023-12-14T11:57:36;7.10;;;1.67;;
2548;SDS011;1284;53.520;10.248;2023-12-14T12:00:02;2.85;;;1.70;;
2548;SDS011;1284;53.520;10.248;2023-12-14T12:02:30;1.35;;;1.08;;
2548;SDS011;1284;53.520;10.248;2023-12-14T12:04:55;1.73;;;1.15;;
2548;SDS011;1284;53.520;10.248;2023-12-14T12:07:21;1.13;;;1.02;;
2548;SDS011;1284;53.520;10.248;2023-12-14T12:09:51;3.63;;;1.57;;
2548;SDS011;1284;53.520;10.248;2023-12-14T12:12:16;3.38;;;1.10;;
2548;SDS011;1284;53.520;10.248;2023-12-14T12:14:42;2.55;;;1.77;;
2548;SDS011;1284;53.520;10.248;2023-12-14T12:17:08;2.15;;;1.42;;
2548;SDS011;1284;53.520;10.248;2023-12-14T12:19:34;1.88;;;1.50;;
2548;SDS011;1284;53.520;10.248;2023-12-14T12:22:00;3.85;;;1.25;;
2548;SDS011;1284;53.520;10.248;2023-12-14T12:24:26;1.75;;;1.35;;
2548;SDS011;1284;53.520;10.248;2023-12-14T12:26:52;1.65;;;1.38;;
2548;SDS011;1284;53.520;10.248;2023-12-14T12:29:18;3.58;;;1.52;;
2548;SDS011;1284;53.520;10.248;2023-12-14T12:31:43;1.33;;;0.98;;
2548;SDS011;1284;53.520;10.248;2023-12-14T12:34:10;2.50;;;1.33;;
2548;SDS011;1284;53.520;10.248;2023-12-14T12:36:37;1.65;;;1.55;;
2548;SDS011;1284;53.520;10.248;2023-12-14T12:39:03;1.75;;;1.38;;
2548;SDS011;1284;53.520;10.248;2023-12-14T12:41:30;1.98;;;1.30;;
2548;SDS011;1284;53.520;10.248;2023-12-14T12:43:56;3.88;;;1.85;;
2548;SDS011;1284;53.520;10.248;2023-12-14T12:46:22;1.63;;;1.17;;
2548;SDS011;1284;53.520;10.248;2023-12-14T12:48:48;2.05;;;1.15;;
2548;SDS011;1284;53.520;10.248;2023-12-14T12:51:14;2.20;;;1.15;;
2548;SDS011;1284;53.520;10.248;2023-12-14T12:53:39;2.67;;;1.30;;
2548;SDS011;1284;53.520;10.248;2023-12-14T12:56:05;1.20;;;1.02;;
2548;SDS011;1284;53.520;10.248;2023-12-14T12:58:31;1.67;;;1.42;;
2548;SDS011;1284;53.520;10.248;2023-12-14T13:00:56;2.45;;;1.50;;
2548;SDS011;1284;53.520;10.248;2023-12-14T13:03:22;2.67;;;1.45;;
2548;SDS011;1284;53.520;10.248;2023-12-14T13:05:48;4.70;;;1.50;;
2548;SDS011;1284;53.520;10.248;2023-12-14T13:08:13;2.28;;;1.27;;
2548;SDS011;1284;53.520;10.248;2023-12-14T13:10:39;1.80;;;1.40;;
2548;SDS011;1284;53.520;10.248;2023-12-14T13:13:04;2.38;;;1.20;;
2548;SDS011;1284;53.520;10.248;2023-12-14T13:15:31;1.80;;;1.10;;
2548;SDS011;1284;53.520;10.248;2023-12-14T13:17:57;2.47;;;1.30;;
2548;SDS011;1284;53.520;10.248;2023-12-14T13:20:23;1.95;;;1.63;;
2548;SDS011;1284;53.520;10.248;2023-12-14T13:22:49;3.15;;;1.50;;
2548;SDS011;1284;53.520;10.248;2023-12-14T13:25:15;2.60;;;1.52;;
2548;SDS011;1284;53.520;10.248;2023-12-14T13:27:41;2.70;;;1.50;;
2548;SDS011;1284;53.520;10.248;2023-12-14T13:30:08;2.88;;;1.38;;
2548;SDS011;1284;53.520;10.248;2023-12-14T13:32:33;2.03;;;1.50;;
2548;SDS011;1284;53.520;10.248;2023-12-14T13:34:59;2.63;;;1.73;;
2548;SDS011;1284;53.520;10.248;2023-12-14T13:37:25;1.83;;;1.40;;
2548;SDS011;1284;53.520;10.248;2023-12-14T13:39:50;3.65;;;1.33;;
2548;SDS011;1284;53.520;10.248;2023-12-14T13:42:18;2.60;;;1.60;;
2548;SDS011;1284;53.520;10.248;2023-12-14T13:44:44;2.78;;;1.48;;
2548;SDS011;1284;53.520;10.248;2023-12-14T13:47:10;2.15;;;1.50;;
2548;SDS011;1284;53.520;10.248;2023-12-14T13:49:36;1.90;;;1.38;;
2548;SDS011;1284;53.520;10.248;2023-12-14T13:52:01;2.63;;;1.40;;
2548;SDS011;1284;53.520;10.248;2023-12-14T13:54:27;3.22;;;1.40;;
2548;SDS011;1284;53.520;10.248;2023-12-14T13:56:52;2.50;;;1.42;;
2548;SDS011;1284;53.520;10.248;2023-12-14T13:59:18;2.72;;;1.52;;
2548;SDS011;1284;53.520;10.248;2023-12-14T14:01:44;5.53;;;1.60;;
2548;SDS011;1284;53.520;10.248;2023-12-14T14:04:10;3.53;;;2.15;;
2548;SDS011;1284;53.520;10.248;2023-12-14T14:06:35;1.67;;;1.40;;
2548;SDS011;1284;53.520;10.248;2023-12-14T14:09:01;3.60;;;1.77;;
2548;SDS011;1284;53.520;10.248;2023-12-14T14:11:26;2.08;;;1.70;;
2548;SDS011;1284;53.520;10.248;2023-12-14T14:13:52;3.63;;;1.80;;
2548;SDS011;1284;53.520;10.248;2023-12-14T14:16:17;3.20;;;1.73;;
2548;SDS011;1284;53.520;10.248;2023-12-14T14:18:46;1.88;;;1.63;;
2548;SDS011;1284;53.520;10.248;2023-12-14T14:21:14;1.63;;;1.25;;
2548;SDS011;1284;53.520;10.248;2023-12-14T14:23:41;3.63;;;1.65;;
2548;SDS011;1284;53.520;10.248;2023-12-14T14:26:07;3.80;;;1.88;;
2548;SDS011;1284;53.520;10.248;2023-12-14T14:28:33;2.05;;;1.30;;
2548;SDS011;1284;53.520;10.248;2023-12-14T14:30:58;3.15;;;1.33;;
2548;SDS011;1284;53.520;10.248;2023-12-14T14:33:24;4.20;;;1.15;;
2548;SDS011;1284;53.520;10.248;2023-12-14T14:35:50;2.80;;;1.50;;
2548;SDS011;1284;53.520;10.248;2023-12-14T14:38:16;2.95;;;1.45;;
2548;SDS011;1284;53.520;10.248;2023-12-14T14:40:42;3.13;;;1.30;;
2548;SDS011;1284;53.520;10.248;2023-12-14T14:43:09;2.88;;;1.65;;
2548;SDS011;1284;53.520;10.248;2023-12-14T14:45:35;2.38;;;1.80;;
2548;SDS011;1284;53.520;10.248;2023-12-14T14:48:02;2.17;;;1.35;;
2548;SDS011;1284;53.520;10.248;2023-12-14T14:50:33;2.00;;;1.35;;
2548;SDS011;1284;53.520;10.248;2023-12-14T14:52:59;2.58;;;1.33;;
2548;SDS011;1284;53.520;10.248;2023-12-14T14:55:25;2.95;;;1.40;;
2548;SDS011;1284;53.520;10.248;2023-12-14T14:57:51;2.83;;;1.45;;
2548;SDS011;1284;53.520;10.248;2023-12-14T15:00:17;2.67;;;1.75;;
2548;SDS011;1284;53.520;10.248;2023-12-14T15:02:43;3.15;;;1.60;;